Terminal Aerodrome Forecast
Issued by NWS Central Illinois

Home | Current Version | Previous Version | Text Only | Print | Product List | Glossary On
Versions: 1 2 3 4 5 6 7 8 9 10 11 12 13 14 15 16 17 18
000
FTUS43 KILX 041328 AAA
TAFPIA
TAF AMD
KPIA 041328Z 0413/0512 05003KT 6SM HZ SKC
      TEMPO 0413/0415 4SM HZ
     FM041500 VRB05KT P6SM SCT035
     FM050100 00000KT P6SM SKC
     FM050900 13003KT 4SM BR SKC=

USA.gov is the U.S. government's official web portal to all federal, state and local government web resources and services.